sensor_id;sensor_type;location;lat;lon;timestamp;pressure;altitude;pressure_sealevel;temperature;humidity
15880;BME280;61999;51.514;14.614;2022-11-15T19:27:34;99377.00;;;5.70;43.53
15880;BME280;61999;51.514;14.614;2022-11-15T19:30:07;99365.06;;;5.53;44.17
15880;BME280;61999;51.514;14.614;2022-11-15T19:32:34;99366.25;;;5.49;44.34
15880;BME280;61999;51.514;14.614;2022-11-15T19:35:00;99368.03;;;5.49;43.67
15880;BME280;61999;51.514;14.614;2022-11-15T19:37:27;99362.88;;;5.47;43.23
15880;BME280;61999;51.514;14.614;2022-11-15T19:39:53;99360.28;;;5.47;43.15
15880;BME280;61999;51.514;14.614;2022-11-15T19:42:22;99355.03;;;5.47;43.55
15880;BME280;61999;51.514;14.614;2022-11-15T19:49:53;99351.06;;;5.42;43.16
15880;BME280;61999;51.514;14.614;2022-11-15T19:52:19;99343.56;;;5.37;43.38
15880;BME280;61999;51.514;14.614;2022-11-15T19:54:47;99342.00;;;5.35;43.30
15880;BME280;61999;51.514;14.614;2022-11-15T19:57:14;99337.91;;;5.30;43.63
15880;BME280;61999;51.514;14.614;2022-11-15T19:59:40;99342.53;;;5.27;43.61
15880;BME280;61999;51.514;14.614;2022-11-15T20:02:08;99347.97;;;5.24;43.35
15880;BME280;61999;51.514;14.614;2022-11-15T20:04:36;99338.69;;;5.20;43.39
15880;BME280;61999;51.514;14.614;2022-11-15T20:09:44;99345.38;;;5.11;43.94
15880;BME280;61999;51.514;14.614;2022-11-15T20:12:10;99350.97;;;5.05;43.76
15880;BME280;61999;51.514;14.614;2022-11-15T20:14:37;99340.88;;;5.00;43.45
15880;BME280;61999;51.514;14.614;2022-11-15T20:17:04;99341.91;;;4.98;43.72
15880;BME280;61999;51.514;14.614;2022-11-15T20:19:31;99343.16;;;4.92;43.42
15880;BME280;61999;51.514;14.614;2022-11-15T20:21:57;99339.78;;;4.90;43.57
15880;BME280;61999;51.514;14.614;2022-11-15T20:24:24;99341.88;;;4.85;43.55
15880;BME280;61999;51.514;14.614;2022-11-15T20:31:54;99346.47;;;4.69;44.11
15880;BME280;61999;51.514;14.614;2022-11-15T20:34:23;99346.69;;;4.66;43.64
15880;BME280;61999;51.514;14.614;2022-11-15T20:36:49;99349.56;;;4.61;43.89
15880;BME280;61999;51.514;14.614;2022-11-15T20:39:16;99340.38;;;4.55;44.25
15880;BME280;61999;51.514;14.614;2022-11-15T20:41:42;99337.59;;;4.44;45.18
15880;BME280;61999;51.514;14.614;2022-11-15T20:44:09;99338.63;;;4.41;45.35
15880;BME280;61999;51.514;14.614;2022-11-15T20:46:36;99332.03;;;4.36;45.01
15880;BME280;61999;51.514;14.614;2022-11-15T20:54:06;99324.53;;;4.04;46.21
15880;BME280;61999;51.514;14.614;2022-11-15T20:56:34;99319.56;;;4.14;45.30
15880;BME280;61999;51.514;14.614;2022-11-15T20:59:00;99321.22;;;4.15;45.32
15880;BME280;61999;51.514;14.614;2022-11-15T21:01:27;99319.47;;;4.15;45.29
15880;BME280;61999;51.514;14.614;2022-11-15T21:03:54;99315.25;;;4.00;46.01
15880;BME280;61999;51.514;14.614;2022-11-15T21:06:24;99316.91;;;4.01;45.92
15880;BME280;61999;51.514;14.614;2022-11-15T21:08:53;99317.09;;;3.98;45.89
15880;BME280;61999;51.514;14.614;2022-11-15T21:11:40;99311.13;;;3.96;45.46
15880;BME280;61999;51.514;14.614;2022-11-15T21:19:28;99319.47;;;3.88;45.13
15880;BME280;61999;51.514;14.614;2022-11-15T21:22:00;99315.47;;;3.83;45.52
15880;BME280;61999;51.514;14.614;2022-11-15T21:24:28;99312.13;;;3.81;45.84
15880;BME280;61999;51.514;14.614;2022-11-15T21:26:55;99315.66;;;3.80;45.74
15880;BME280;61999;51.514;14.614;2022-11-15T21:29:21;99308.97;;;3.75;45.70
15880;BME280;61999;51.514;14.614;2022-11-15T21:31:50;99307.50;;;3.71;45.85
15880;BME280;61999;51.514;14.614;2022-11-15T21:34:18;99304.97;;;3.70;45.68
15880;BME280;61999;51.514;14.614;2022-11-15T21:40:53;99297.66;;;3.62;45.73
15880;BME280;61999;51.514;14.614;2022-11-15T21:43:20;99292.63;;;3.59;45.81
15880;BME280;61999;51.514;14.614;2022-11-15T21:45:55;99295.13;;;3.61;45.74
15880;BME280;61999;51.514;14.614;2022-11-15T21:48:21;99297.84;;;3.59;45.94
15880;BME280;61999;51.514;14.614;2022-11-15T21:50:55;99289.28;;;3.57;46.29
15880;BME280;61999;51.514;14.614;2022-11-15T21:53:22;99287.97;;;3.50;46.39
15880;BME280;61999;51.514;14.614;2022-11-15T21:55:48;99286.88;;;3.40;47.54
15880;BME280;61999;51.514;14.614;2022-11-15T21:58:32;99284.84;;;3.45;47.16
15880;BME280;61999;51.514;14.614;2022-11-15T22:01:03;99282.31;;;3.43;46.96
15880;BME280;61999;51.514;14.614;2022-11-15T22:03:48;99270.78;;;3.33;47.57
15880;BME280;61999;51.514;14.614;2022-11-15T22:06:15;99270.88;;;3.17;48.60
15880;BME280;61999;51.514;14.614;2022-11-15T22:08:44;99272.00;;;3.27;47.75
15880;BME280;61999;51.514;14.614;2022-11-15T22:11:11;99267.72;;;3.26;47.84
15880;BME280;61999;51.514;14.614;2022-11-15T22:18:10;99271.69;;;3.18;47.67
15880;BME280;61999;51.514;14.614;2022-11-15T22:20:38;99272.53;;;3.18;47.70
15880;BME280;61999;51.514;14.614;2022-11-15T22:23:12;99275.97;;;3.19;47.66
15880;BME280;61999;51.514;14.614;2022-11-15T22:25:39;99273.47;;;3.17;47.87
15880;BME280;61999;51.514;14.614;2022-11-15T22:28:05;99265.66;;;3.17;48.00
15880;BME280;61999;51.514;14.614;2022-11-15T22:30:32;99267.50;;;3.15;48.08
15880;BME280;61999;51.514;14.614;2022-11-15T22:35:37;99269.22;;;3.16;47.71
15880;BME280;61999;51.514;14.614;2022-11-15T22:38:05;99266.69;;;3.15;47.59
15880;BME280;61999;51.514;14.614;2022-11-15T22:40:31;99262.31;;;3.15;47.49
15880;BME280;61999;51.514;14.614;2022-11-15T22:42:58;99255.44;;;3.14;47.48
15880;BME280;61999;51.514;14.614;2022-11-15T22:45:25;99266.75;;;3.13;47.38
15880;BME280;61999;51.514;14.614;2022-11-15T22:47:52;99266.03;;;3.11;47.21
15880;BME280;61999;51.514;14.614;2022-11-15T22:50:18;99260.00;;;3.11;47.20
15880;BME280;61999;51.514;14.614;2022-11-15T22:56:51;99247.44;;;3.03;47.05
15880;BME280;61999;51.514;14.614;2022-11-15T22:59:18;99246.59;;;3.02;46.95
15880;BME280;61999;51.514;14.614;2022-11-15T23:01:45;99243.91;;;3.04;46.80
15880;BME280;61999;51.514;14.614;2022-11-15T23:04:12;99241.41;;;3.02;46.91
15880;BME280;61999;51.514;14.614;2022-11-15T23:06:38;99233.66;;;3.01;47.03
15880;BME280;61999;51.514;14.614;2022-11-15T23:09:08;99236.38;;;2.99;46.80
15880;BME280;61999;51.514;14.614;2022-11-15T23:11:36;99232.19;;;2.97;46.57
15880;BME280;61999;51.514;14.614;2022-11-15T23:15:50;99227.91;;;2.81;46.63
15880;BME280;61999;51.514;14.614;2022-11-15T23:18:38;99223.91;;;2.76;46.78
15880;BME280;61999;51.514;14.614;2022-11-15T23:21:08;99226.63;;;2.74;46.61
15880;BME280;61999;51.514;14.614;2022-11-15T23:23:35;99216.38;;;2.71;46.61
15880;BME280;61999;51.514;14.614;2022-11-15T23:26:02;99217.41;;;2.69;46.80
15880;BME280;61999;51.514;14.614;2022-11-15T23:28:31;99218.34;;;2.68;46.69
15880;BME280;61999;51.514;14.614;2022-11-15T23:33:59;99222.31;;;2.59;46.77
15880;BME280;61999;51.514;14.614;2022-11-15T23:36:28;99221.59;;;2.57;46.69
15880;BME280;61999;51.514;14.614;2022-11-15T23:38:55;99218.41;;;2.52;46.66
15880;BME280;61999;51.514;14.614;2022-11-15T23:41:24;99214.16;;;2.51;46.74
15880;BME280;61999;51.514;14.614;2022-11-15T23:43:51;99214.47;;;2.45;46.79
15880;BME280;61999;51.514;14.614;2022-11-15T23:46:18;99209.28;;;2.45;47.04
15880;BME280;61999;51.514;14.614;2022-11-15T23:48:45;99211.16;;;2.43;46.78
15880;BME280;61999;51.514;14.614;2022-11-15T23:55:28;99206.84;;;2.27;46.83
15880;BME280;61999;51.514;14.614;2022-11-15T23:57:56;99203.50;;;2.25;46.74
